Time;durP1;ratioP1;P1;durP2;ratioP2;P2;SDS_P1;SDS_P2;PMS_P1;PMS_P2;Temp;Humidity;BMP_temperature;BMP_pressure;BME280_temperature;BME280_humidity;BME280_pressure;Samples;Min_cycle;Max_cycle;Signal;HPM_P1;HPM_P2
2021/01/07 00:00:04;;;;;;;7.40;5.07;;;;;;;1.91;nan;96188.31;4881078;29;20311;-66
2021/01/07 00:02:30;;;;;;;6.85;4.80;;;;;;;1.92;nan;96192.53;4878293;29;20772;-66
2021/01/07 00:04:57;;;;;;;7.80;5.78;;;;;;;1.87;nan;96197.03;4881220;29;20375;-67
2021/01/07 00:07:24;;;;;;;8.32;5.10;;;;;;;1.85;nan;96188.53;4881801;29;20272;-67
2021/01/07 00:09:51;;;;;;;7.10;4.75;;;;;;;1.82;nan;96192.91;4881268;29;20625;-66
2021/01/07 00:12:18;;;;;;;6.72;4.10;;;;;;;1.72;nan;96195.00;4880384;29;20649;-67
2021/01/07 00:14:45;;;;;;;6.75;4.40;;;;;;;1.77;nan;96190.50;4882627;29;20222;-67
2021/01/07 00:17:12;;;;;;;7.72;4.28;;;;;;;1.73;nan;96194.09;4882474;29;20593;-67
2021/01/07 00:19:39;;;;;;;7.05;4.25;;;;;;;1.80;nan;96187.88;4882492;29;20268;-68
2021/01/07 00:22:06;;;;;;;7.47;5.05;;;;;;;1.80;nan;96184.44;4885170;29;20213;-66
2021/01/07 00:24:33;;;;;;;12.07;6.85;;;;;;;1.80;nan;96190.44;4885435;29;20312;-67
2021/01/07 00:27:00;;;;;;;9.85;6.00;;;;;;;1.75;nan;96192.31;4885604;29;20255;-67
2021/01/07 00:29:26;;;;;;;9.43;5.78;;;;;;;1.82;nan;96193.78;4884448;29;20312;-67
2021/01/07 00:31:54;;;;;;;17.27;8.00;;;;;;;1.87;nan;96181.63;4885152;29;20295;-67
2021/01/07 00:34:21;;;;;;;29.92;15.75;;;;;;;1.97;nan;96194.94;4883207;29;20613;-67
2021/01/07 00:36:54;;;;;;;32.42;16.55;;;;;;;1.93;nan;96183.13;4867804;29;20669;-67
2021/01/07 00:39:20;;;;;;;23.58;11.70;;;;;;;2.04;nan;96188.72;4864104;29;20320;-67
2021/01/07 00:41:52;;;;;;;92.88;27.42;;;;;;;2.07;nan;96188.63;4866055;29;20237;-67
2021/01/07 00:44:19;;;;;;;118.57;34.03;;;;;;;2.04;nan;96193.84;4864898;29;20232;-66
2021/01/07 00:46:46;;;;;;;75.45;24.38;;;;;;;2.00;nan;96190.53;4866562;29;20313;-67
2021/01/07 00:49:14;;;;;;;7.53;5.07;;;;;;;2.05;nan;96191.22;4865184;29;20226;-66
2021/01/07 00:51:41;;;;;;;12.45;6.80;;;;;;;2.05;nan;96192.97;4865462;29;20694;-67
2021/01/07 00:54:08;;;;;;;16.77;6.95;;;;;;;2.01;nan;96187.13;4865570;29;20313;-67
2021/01/07 00:56:36;;;;;;;13.73;6.57;;;;;;;2.11;nan;96187.59;4865329;29;20202;-66
2021/01/07 00:59:04;;;;;;;8.75;5.50;;;;;;;2.21;nan;96187.22;4864793;29;20690;-67
2021/01/07 01:01:31;;;;;;;18.33;8.70;;;;;;;2.25;nan;96186.22;4861482;29;20693;-67
2021/01/07 01:03:58;;;;;;;21.70;10.80;;;;;;;2.22;nan;96177.81;4864452;29;20246;-67
2021/01/07 01:06:38;;;;;;;19.90;10.25;;;;;;;2.30;nan;96191.19;4866431;29;20595;-67
2021/01/07 01:09:06;;;;;;;18.90;9.68;;;;;;;2.31;nan;96185.16;4865361;29;20221;-67
2021/01/07 01:11:38;;;;;;;7.88;5.40;;;;;;;2.35;nan;96186.72;4866504;29;20291;-68
2021/01/07 01:14:05;;;;;;;8.93;5.25;;;;;;;2.31;nan;96188.56;4864724;29;20314;-67
2021/01/07 01:16:32;;;;;;;7.57;4.65;;;;;;;2.35;nan;96190.13;4865949;29;20237;-67
2021/01/07 01:18:59;;;;;;;7.22;4.45;;;;;;;2.28;nan;96186.09;4864828;29;20322;-68
2021/01/07 01:21:26;;;;;;;7.50;4.93;;;;;;;2.33;nan;96185.94;4866312;29;20627;-67
2021/01/07 01:23:54;;;;;;;10.70;4.88;;;;;;;2.36;nan;96186.66;4865804;29;20592;-67
2021/01/07 01:26:21;;;;;;;8.27;4.65;;;;;;;2.34;nan;96188.44;4865035;29;20705;-68
2021/01/07 01:28:48;;;;;;;11.13;6.10;;;;;;;2.35;nan;96190.13;4864977;29;20260;-67
2021/01/07 01:31:15;;;;;;;9.85;5.22;;;;;;;2.33;nan;96191.91;4865437;29;20768;-68
2021/01/07 01:33:42;;;;;;;7.30;4.80;;;;;;;2.39;nan;96196.84;4864516;29;20265;-66
2021/01/07 01:36:09;;;;;;;8.80;4.88;;;;;;;2.32;nan;96195.38;4881006;29;20293;-67
2021/01/07 01:38:36;;;;;;;8.15;4.82;;;;;;;2.32;nan;96200.50;4883261;29;20370;-68
2021/01/07 01:41:04;;;;;;;10.45;4.40;;;;;;;2.29;nan;96192.09;4883151;29;20217;-68
2021/01/07 01:43:34;;;;;;;6.50;3.97;;;;;;;2.16;nan;96199.41;4879214;29;20719;-67
2021/01/07 01:46:01;;;;;;;8.30;4.85;;;;;;;2.08;nan;96191.13;4883524;29;20298;-68
2021/01/07 01:48:28;;;;;;;8.57;5.30;;;;;;;2.16;nan;96186.56;4884043;29;20643;-67
2021/01/07 01:50:55;;;;;;;11.05;5.10;;;;;;;2.07;nan;96170.66;4883681;29;20734;-68
2021/01/07 01:53:22;;;;;;;9.38;5.05;;;;;;;2.20;nan;96190.69;4884642;29;20238;-67
2021/01/07 01:55:49;;;;;;;7.00;4.55;;;;;;;2.18;nan;96195.03;4882490;29;20610;-67
2021/01/07 01:58:18;;;;;;;7.65;4.10;;;;;;;2.14;nan;96195.22;4882163;29;20281;-67
2021/01/07 02:00:44;;;;;;;6.20;3.70;;;;;;;2.13;nan;96191.78;4883323;29;20226;-68
2021/01/07 02:03:11;;;;;;;6.70;3.85;;;;;;;2.17;nan;96189.94;4883760;29;20655;-67
2021/01/07 02:05:40;;;;;;;8.05;4.00;;;;;;;2.24;nan;96192.25;4883017;29;20225;-67
2021/01/07 02:08:09;;;;;;;6.10;4.25;;;;;;;2.25;nan;96187.94;4882023;29;20665;-67
2021/01/07 02:10:36;;;;;;;8.30;4.22;;;;;;;2.12;nan;96192.69;4886669;29;20669;-68
2021/01/07 02:13:04;;;;;;;5.65;3.60;;;;;;;1.98;nan;96188.97;4883024;29;20713;-67
2021/01/07 02:15:32;;;;;;;6.55;3.90;;;;;;;2.07;nan;96196.31;4880209;29;20324;-68
2021/01/07 02:17:59;;;;;;;5.97;3.90;;;;;;;2.03;nan;96193.03;4883148;29;20629;-67
2021/01/07 02:20:28;;;;;;;5.97;4.00;;;;;;;1.93;nan;96198.53;4882180;29;20641;-70
2021/01/07 02:22:55;;;;;;;4.85;3.45;;;;;;;1.99;nan;96195.75;4882819;29;20284;-68
2021/01/07 02:25:27;;;;;;;7.05;4.10;;;;;;;1.94;nan;96197.63;4883020;29;20633;-67
2021/01/07 02:27:54;;;;;;;7.32;4.55;;;;;;;2.00;nan;96203.38;4882904;29;20609;-67
2021/01/07 02:30:21;;;;;;;7.85;4.50;;;;;;;1.94;nan;96198.47;4881594;29;20321;-66
2021/01/07 02:32:49;;;;;;;6.22;4.13;;;;;;;1.87;nan;96196.16;4883543;29;20664;-66
2021/01/07 02:35:16;;;;;;;6.57;3.58;;;;;;;1.68;nan;96179.72;4881507;29;20319;-66
2021/01/07 02:37:46;;;;;;;10.90;4.45;;;;;;;1.81;nan;96196.38;4883240;29;20197;-66
2021/01/07 02:40:14;;;;;;;7.55;3.85;;;;;;;1.62;nan;96198.72;4881555;29;20277;-67
2021/01/07 02:42:41;;;;;;;5.13;3.50;;;;;;;1.61;nan;96194.50;4883622;29;20705;-67
2021/01/07 02:45:09;;;;;;;6.00;4.18;;;;;;;1.64;nan;96196.94;4882645;29;20955;-68
2021/01/07 02:47:36;;;;;;;6.60;4.15;;;;;;;1.69;nan;96196.81;4882206;29;20295;-67
2021/01/07 02:50:04;;;;;;;6.55;3.60;;;;;;;1.78;nan;96197.31;4882021;29;20516;-67
2021/01/07 02:52:31;;;;;;;6.55;3.90;;;;;;;1.70;nan;96199.31;4878313;29;20227;-67
2021/01/07 02:54:58;;;;;;;6.68;4.38;;;;;;;1.60;nan;96187.69;4882249;29;20238;-68
2021/01/07 02:57:25;;;;;;;7.55;3.85;;;;;;;1.44;nan;96191.69;4883447;29;20296;-67
2021/01/07 02:59:52;;;;;;;5.35;4.00;;;;;;;1.44;nan;96188.25;4880719;29;20727;-67
2021/01/07 03:02:19;;;;;;;5.50;3.60;;;;;;;1.48;nan;96175.28;4882323;29;20629;-67
2021/01/07 03:04:45;;;;;;;5.50;3.25;;;;;;;1.48;nan;96162.47;4882070;29;20695;-67
2021/01/07 03:07:13;;;;;;;8.82;3.35;;;;;;;1.49;nan;96169.25;4882432;29;20738;-67
2021/01/07 03:09:42;;;;;;;4.28;2.80;;;;;;;1.58;nan;96180.94;4881184;29;20727;-67
2021/01/07 03:12:14;;;;;;;5.13;2.83;;;;;;;1.55;nan;96184.44;4883435;29;20288;-67
2021/01/07 03:14:41;;;;;;;7.38;3.50;;;;;;;1.55;nan;96176.75;4886095;29;20546;-66
2021/01/07 03:17:08;;;;;;;5.93;3.33;;;;;;;1.47;nan;96181.31;4882666;29;20589;-67
2021/01/07 03:19:35;;;;;;;6.40;4.15;;;;;;;1.46;nan;96184.75;4883389;29;20413;-66
2021/01/07 03:22:03;;;;;;;9.82;4.35;;;;;;;1.49;nan;96174.41;4881814;29;20197;-68
2021/01/07 03:24:30;;;;;;;7.20;3.95;;;;;;;1.52;nan;96168.31;4881186;29;20308;-68
2021/01/07 03:26:58;;;;;;;6.30;4.10;;;;;;;1.49;nan;96176.97;4882295;29;20626;-66
2021/01/07 03:29:26;;;;;;;6.57;3.90;;;;;;;1.47;nan;96167.66;4882276;29;21026;-66
2021/01/07 03:31:53;;;;;;;7.30;3.63;;;;;;;1.48;nan;96157.34;4882549;29;20284;-67
2021/01/07 03:34:20;;;;;;;8.18;4.43;;;;;;;1.60;nan;96168.91;4881241;29;20711;-67
2021/01/07 03:36:48;;;;;;;5.50;3.90;;;;;;;1.59;nan;96178.34;4882475;29;20209;-66
2021/01/07 03:39:15;;;;;;;9.82;4.05;;;;;;;1.63;nan;96182.47;4880763;29;20253;-66
2021/01/07 03:41:42;;;;;;;6.35;4.22;;;;;;;1.64;nan;96173.06;4881405;29;20791;-67
2021/01/07 03:44:09;;;;;;;5.85;3.80;;;;;;;1.62;nan;96178.22;4881329;29;20233;-67
2021/01/07 03:46:38;;;;;;;5.95;3.83;;;;;;;1.78;nan;96171.66;4882708;29;20581;-67
2021/01/07 03:49:05;;;;;;;6.97;4.10;;;;;;;1.87;nan;96171.38;4880988;29;20253;-67
2021/01/07 03:51:32;;;;;;;5.53;3.53;;;;;;;1.90;nan;96171.25;4878273;29;20635;-67
2021/01/07 03:53:59;;;;;;;6.80;4.30;;;;;;;2.00;nan;96170.03;4882602;29;20758;-67
2021/01/07 03:56:35;;;;;;;10.23;4.80;;;;;;;1.99;nan;96165.78;4885187;29;20312;-67
2021/01/07 03:59:02;;;;;;;7.30;3.83;;;;;;;2.01;nan;96165.75;4885625;29;20228;-69
2021/01/07 04:01:28;;;;;;;7.38;4.13;;;;;;;1.79;nan;96165.69;4885921;29;20637;-67
2021/01/07 04:03:56;;;;;;;5.05;3.35;;;;;;;1.71;nan;96162.50;4886163;29;20774;-67
2021/01/07 04:06:23;;;;;;;7.03;3.95;;;;;;;1.74;nan;96162.41;4885944;29;20296;-67
2021/01/07 04:08:49;;;;;;;5.18;3.28;;;;;;;1.84;nan;96166.31;4884942;29;20692;-66
2021/01/07 04:11:17;;;;;;;6.05;3.38;;;;;;;1.87;nan;96167.94;4886314;29;20592;-67
2021/01/07 04:13:43;;;;;;;5.15;3.53;;;;;;;1.95;nan;96165.94;4885527;29;20285;-68
2021/01/07 04:16:11;;;;;;;4.97;3.40;;;;;;;1.98;nan;96164.13;4886761;29;20204;-67
2021/01/07 04:18:38;;;;;;;8.18;4.05;;;;;;;2.05;nan;96162.19;4885225;29;20877;-68
2021/01/07 04:21:06;;;;;;;4.82;3.17;;;;;;;2.07;nan;96168.91;4885695;29;20214;-67
2021/01/07 04:23:32;;;;;;;10.30;3.70;;;;;;;2.13;nan;96163.56;4881452;29;20308;-68
2021/01/07 04:26:00;;;;;;;8.68;4.55;;;;;;;2.04;nan;96161.34;4886693;29;20697;-67
2021/01/07 04:28:27;;;;;;;7.13;4.50;;;;;;;2.08;nan;96164.63;4884907;29;20228;-69
2021/01/07 04:30:54;;;;;;;5.70;3.50;;;;;;;2.12;nan;96158.47;4884832;29;20629;-66
2021/01/07 04:33:20;;;;;;;5.50;4.43;;;;;;;2.09;nan;96161.16;4885940;29;21135;-67
2021/01/07 04:35:47;;;;;;;6.20;4.13;;;;;;;1.85;nan;96157.75;4885517;29;20229;-66
2021/01/07 04:38:15;;;;;;;6.72;4.18;;;;;;;1.73;nan;96163.31;4884864;29;20626;-66
2021/01/07 04:40:41;;;;;;;5.70;3.53;;;;;;;1.80;nan;96161.38;4884031;29;20751;-67
2021/01/07 04:43:08;;;;;;;6.50;3.80;;;;;;;1.82;nan;96157.84;4885562;29;20228;-66
2021/01/07 04:45:35;;;;;;;6.13;4.28;;;;;;;1.88;nan;96156.78;4884923;29;20573;-67
2021/01/07 04:48:08;;;;;;;6.05;3.70;;;;;;;2.02;nan;96159.72;4886143;29;20312;-67
2021/01/07 04:50:34;;;;;;;7.50;3.75;;;;;;;2.05;nan;96160.44;4880091;29;20644;-67
2021/01/07 04:53:02;;;;;;;6.22;3.45;;;;;;;2.09;nan;96156.88;4885460;29;20502;-67
2021/01/07 04:55:30;;;;;;;8.57;4.38;;;;;;;2.06;nan;96156.16;4885254;29;20225;-67
2021/01/07 04:57:56;;;;;;;5.75;3.50;;;;;;;2.14;nan;96165.22;4886238;29;20201;-67
2021/01/07 05:00:24;;;;;;;6.70;4.05;;;;;;;2.10;nan;96162.84;4883979;29;20336;-67
2021/01/07 05:02:52;;;;;;;5.28;3.92;;;;;;;2.16;nan;96165.19;4884958;29;20531;-67
2021/01/07 05:05:20;;;;;;;7.45;4.22;;;;;;;2.20;nan;96171.91;4883451;29;20628;-67
2021/01/07 05:07:49;;;;;;;5.78;4.00;;;;;;;2.15;nan;96164.34;4886843;29;20687;-67
2021/01/07 05:10:23;;;;;;;6.47;3.92;;;;;;;2.22;nan;96162.41;4883326;29;20575;-68
2021/01/07 05:12:53;;;;;;;6.00;3.70;;;;;;;2.10;nan;96161.13;4884918;29;20551;-67
2021/01/07 05:15:20;;;;;;;5.57;3.47;;;;;;;2.11;nan;96165.34;4886901;29;20309;-68
2021/01/07 05:17:47;;;;;;;5.13;3.30;;;;;;;2.18;nan;96160.81;4885267;29;20224;-67
2021/01/07 05:20:15;;;;;;;4.70;3.00;;;;;;;2.06;nan;96149.28;4884037;29;20315;-68
2021/01/07 05:22:43;;;;;;;6.07;4.30;;;;;;;2.06;nan;96162.09;4885843;29;20280;-68
2021/01/07 05:25:11;;;;;;;5.20;3.72;;;;;;;2.04;nan;96158.78;4882880;29;20669;-67
2021/01/07 05:27:42;;;;;;;5.72;3.45;;;;;;;1.89;nan;96149.06;4885204;29;20578;-66
2021/01/07 05:30:12;;;;;;;7.43;3.60;;;;;;;1.94;nan;96157.44;4883287;29;20672;-67
2021/01/07 05:32:41;;;;;;;5.35;3.70;;;;;;;1.91;nan;96157.53;4885385;29;20513;-66
2021/01/07 05:35:10;;;;;;;5.88;3.38;;;;;;;1.91;nan;96157.53;4876640;29;20237;-69
2021/01/07 05:37:38;;;;;;;6.03;3.85;;;;;;;1.84;nan;96161.19;4865917;29;20231;-67
2021/01/07 05:40:07;;;;;;;7.20;3.65;;;;;;;1.77;nan;96153.78;4864265;29;20789;-67
2021/01/07 05:42:42;;;;;;;7.05;4.10;;;;;;;1.81;nan;96158.75;4865571;29;20633;-68
2021/01/07 05:45:11;;;;;;;6.32;4.15;;;;;;;1.86;nan;96163.72;4864970;29;20292;-67
2021/01/07 05:47:40;;;;;;;18.10;8.15;;;;;;;1.80;nan;96159.66;4866035;29;20543;-67
2021/01/07 05:50:08;;;;;;;14.48;6.95;;;;;;;1.83;nan;96162.09;4863575;29;20547;-67
2021/01/07 05:52:42;;;;;;;10.80;6.22;;;;;;;1.77;nan;96154.59;4864833;29;20206;-67
2021/01/07 05:55:13;;;;;;;7.75;5.32;;;;;;;1.74;nan;96152.16;4863506;29;20221;-68
2021/01/07 05:57:41;;;;;;;10.45;5.30;;;;;;;1.86;nan;96149.16;4864241;29;20308;-68
2021/01/07 06:00:11;;;;;;;6.72;4.97;;;;;;;1.96;nan;96144.53;4863754;29;20833;-67
2021/01/07 06:02:39;;;;;;;8.05;5.18;;;;;;;1.99;nan;96152.97;4864433;29;20318;-68
2021/01/07 06:05:08;;;;;;;6.18;3.92;;;;;;;1.78;nan;96145.19;4860613;29;20313;-67
2021/01/07 06:07:36;;;;;;;8.80;4.85;;;;;;;1.71;nan;96154.00;4864955;29;20721;-66
2021/01/07 06:10:05;;;;;;;8.32;4.65;;;;;;;1.63;nan;96151.69;4863176;29;20337;-67
2021/01/07 06:12:32;;;;;;;6.72;3.97;;;;;;;1.67;nan;96163.53;4860276;29;20300;-67
2021/01/07 06:15:02;;;;;;;10.57;4.90;;;;;;;1.58;nan;96158.72;4865448;29;20317;-67
2021/01/07 06:17:31;;;;;;;6.78;4.25;;;;;;;1.63;nan;96161.94;4864031;29;20297;-66
2021/01/07 06:19:58;;;;;;;7.00;4.45;;;;;;;1.63;nan;96164.50;4864017;29;20341;-68
2021/01/07 06:22:25;;;;;;;7.38;4.32;;;;;;;1.59;nan;96160.38;4864141;29;20415;-68
2021/01/07 06:24:54;;;;;;;4.60;3.60;;;;;;;1.53;nan;96160.59;4864938;29;20316;-69
2021/01/07 06:27:25;;;;;;;7.05;4.60;;;;;;;1.53;nan;96164.88;4859268;29;20725;-67
2021/01/07 06:30:21;;;;;;;6.47;4.10;;;;;;;1.64;nan;96163.63;4863946;29;20311;-66
2021/01/07 06:33:02;;;;;;;9.13;4.60;;;;;;;1.61;nan;96163.72;4862595;29;20638;-66
2021/01/07 06:35:33;;;;;;;12.55;5.18;;;;;;;1.58;nan;96158.72;4874019;29;20668;-69
2021/01/07 06:38:01;;;;;;;7.22;5.05;;;;;;;1.53;nan;96160.59;4883982;29;20300;-68
2021/01/07 06:40:28;;;;;;;8.00;5.15;;;;;;;1.55;nan;96166.50;4882487;29;20542;-67
2021/01/07 06:42:56;;;;;;;9.10;5.95;;;;;;;1.66;nan;96169.53;4882108;29;20250;-67
2021/01/07 06:45:24;;;;;;;12.90;6.85;;;;;;;1.58;nan;96153.59;4882477;29;20519;-67
2021/01/07 06:47:54;;;;;;;11.82;6.80;;;;;;;1.75;nan;96166.66;4883505;29;20236;-67
2021/01/07 06:50:21;;;;;;;14.18;6.70;;;;;;;1.81;nan;96171.56;4880612;29;20328;-68
2021/01/07 06:52:49;;;;;;;7.97;4.90;;;;;;;1.74;nan;96170.13;4882762;29;20468;-67
2021/01/07 06:55:17;;;;;;;10.05;5.13;;;;;;;1.60;nan;96167.19;4882685;29;20604;-66
2021/01/07 06:57:45;;;;;;;7.75;4.50;;;;;;;1.52;nan;96164.06;4882953;29;20629;-67
2021/01/07 07:00:14;;;;;;;11.88;5.45;;;;;;;1.52;nan;96171.75;4882023;29;20731;-67
2021/01/07 07:02:57;;;;;;;8.27;4.72;;;;;;;1.50;nan;96170.13;4882404;29;20716;-67
2021/01/07 07:05:26;;;;;;;52.97;22.42;;;;;;;1.49;nan;96171.81;4877860;29;20221;-67
2021/01/07 07:08:06;;;;;;;9.93;5.63;;;;;;;1.45;nan;96162.59;4882501;29;20259;-67
2021/01/07 07:11:02;;;;;;;10.23;5.00;;;;;;;1.36;nan;96177.44;4879343;29;20614;-67
2021/01/07 07:13:31;;;;;;;10.60;4.95;;;;;;;1.29;nan;96176.81;4881371;29;20615;-66
2021/01/07 07:16:03;;;;;;;13.32;6.65;;;;;;;1.40;nan;96179.84;4886279;29;20511;-67
2021/01/07 07:18:35;;;;;;;14.20;8.43;;;;;;;1.45;nan;96185.66;4881676;29;20202;-68
2021/01/07 07:21:24;;;;;;;16.05;7.45;;;;;;;1.51;nan;96187.16;4880959;29;20656;-68
2021/01/07 07:23:52;;;;;;;40.30;19.13;;;;;;;1.40;nan;96190.09;4878914;29;20382;-68
2021/01/07 07:26:37;;;;;;;60.25;25.60;;;;;;;1.21;nan;96190.75;4881361;29;20664;-67
2021/01/07 07:29:07;;;;;;;21.70;10.88;;;;;;;1.25;nan;96200.84;4884595;29;20724;-67
2021/01/07 07:31:39;;;;;;;12.68;6.63;;;;;;;1.31;nan;96207.47;4878569;29;20209;-67
2021/01/07 07:34:08;;;;;;;14.52;7.10;;;;;;;1.36;nan;96200.50;4881759;29;20835;-67
2021/01/07 07:36:36;;;;;;;14.00;5.78;;;;;;;1.41;nan;96204.56;4881857;29;20265;-67
2021/01/07 07:39:05;;;;;;;8.50;5.10;;;;;;;1.43;nan;96209.66;4881291;29;20732;-69
2021/01/07 07:41:39;;;;;;;9.50;5.85;;;;;;;1.52;nan;96211.91;4878478;29;20232;-66
2021/01/07 07:44:07;;;;;;;8.98;5.40;;;;;;;1.47;nan;96208.69;4881883;29;20258;-68
2021/01/07 07:46:36;;;;;;;9.82;5.90;;;;;;;1.47;nan;96212.06;4882047;29;20285;-67
2021/01/07 07:49:04;;;;;;;8.70;5.28;;;;;;;1.43;nan;96210.50;4882499;29;20598;-67
2021/01/07 07:51:32;;;;;;;9.25;5.95;;;;;;;1.36;nan;96224.41;4878325;29;20325;-68
2021/01/07 07:54:03;;;;;;;12.10;6.40;;;;;;;1.30;nan;96224.59;4882661;29;20885;-68
2021/01/07 07:56:33;;;;;;;9.07;5.57;;;;;;;1.21;nan;96224.91;4880505;29;20205;-66
2021/01/07 07:59:01;;;;;;;10.10;6.15;;;;;;;1.16;nan;96216.53;4880461;29;20763;-67
2021/01/07 08:01:36;;;;;;;11.40;6.15;;;;;;;1.26;nan;96223.00;4881954;29;20586;-67
2021/01/07 08:04:03;;;;;;;11.07;6.43;;;;;;;1.36;nan;96219.28;4882117;29;20736;-67
2021/01/07 08:06:30;;;;;;;11.85;6.95;;;;;;;1.36;nan;96219.28;4884846;29;20302;-67
2021/01/07 08:09:05;;;;;;;8.07;5.22;;;;;;;1.44;nan;96219.88;4881919;29;20324;-66
2021/01/07 08:11:40;;;;;;;14.55;7.60;;;;;;;1.53;nan;96219.56;4878002;29;20209;-68
2021/01/07 08:14:09;;;;;;;11.75;6.53;;;;;;;1.70;nan;96219.81;4884370;29;20308;-68
2021/01/07 08:16:37;;;;;;;12.80;7.72;;;;;;;1.82;nan;96218.56;4881724;29;20720;-69
2021/01/07 08:19:17;;;;;;;12.45;6.80;;;;;;;1.90;nan;96229.41;4882107;29;20316;-68
2021/01/07 08:21:50;;;;;;;19.65;10.45;;;;;;;2.01;nan;96222.19;4885723;29;20238;-70
2021/01/07 08:24:20;;;;;;;13.93;6.93;;;;;;;2.02;nan;96224.72;4882082;29;20229;-69
2021/01/07 08:26:58;;;;;;;13.20;6.35;;;;;;;2.09;nan;96223.59;4883705;29;20539;-68
2021/01/07 08:29:28;;;;;;;24.02;10.85;;;;;;;2.18;nan;96228.41;4876980;29;20684;-67
2021/01/07 08:32:00;;;;;;;86.35;34.42;;;;;;;2.12;nan;96215.78;4881717;29;20855;-67
2021/01/07 08:34:31;;;;;;;24.00;13.50;;;;;;;2.15;nan;96228.50;4881150;29;20299;-66
2021/01/07 08:37:08;;;;;;;12.50;7.53;;;;;;;2.17;nan;96223.31;4883925;29;20496;-67
2021/01/07 08:39:40;;;;;;;14.82;7.55;;;;;;;2.27;nan;96233.22;4877967;29;20319;-67
2021/01/07 08:42:07;;;;;;;12.82;7.05;;;;;;;2.26;nan;96226.41;4883327;29;20293;-67
2021/01/07 08:44:37;;;;;;;10.50;6.43;;;;;;;2.35;nan;96236.34;4885362;29;20247;-67
2021/01/07 08:47:19;;;;;;;13.65;7.13;;;;;;;2.39;nan;96235.34;4886928;29;20206;-67
2021/01/07 08:49:46;;;;;;;12.18;7.65;;;;;;;2.31;nan;96239.91;4885050;29;20239;-67
2021/01/07 08:52:13;;;;;;;13.15;6.65;;;;;;;2.43;nan;96238.63;4885902;29;20592;-67
2021/01/07 08:54:40;;;;;;;11.63;6.35;;;;;;;2.34;nan;96242.38;4883517;29;20266;-67
2021/01/07 09:00:56;;;;;;;11.05;6.03;;;;;;;2.28;95.00;96240.00;5087044;27;20557;-51
2021/01/07 09:03:23;;;;;;;13.52;6.68;;;;;;;2.19;94.87;96240.34;5077773;28;20233;-50
2021/01/07 09:06:06;;;;;;;11.23;6.30;;;;;;;2.09;94.76;96236.44;5035747;27;20654;-50
2021/01/07 09:08:33;;;;;;;11.30;6.18;;;;;;;1.92;95.00;96209.69;5032623;28;20204;-48
2021/01/07 09:11:06;;;;;;;10.80;6.03;;;;;;;2.07;94.73;96240.75;5056118;28;20307;-51
2021/01/07 09:13:33;;;;;;;12.00;5.97;;;;;;;2.17;94.85;96237.00;5056880;27;20735;-50
2021/01/07 09:16:12;;;;;;;9.85;5.93;;;;;;;2.18;95.47;96237.81;5057169;28;20222;-50
2021/01/07 09:18:39;;;;;;;10.93;5.75;;;;;;;2.24;94.32;96235.03;5052380;27;20751;-48
2021/01/07 09:21:13;;;;;;;12.52;6.82;;;;;;;2.23;93.77;96236.78;5058596;28;20684;-49
2021/01/07 09:23:40;;;;;;;10.43;5.95;;;;;;;2.31;93.75;96241.63;5054285;27;20697;-48
2021/01/07 09:26:07;;;;;;;10.23;6.10;;;;;;;2.27;93.31;96237.53;5056588;28;20286;-48
2021/01/07 09:28:39;;;;;;;11.32;6.00;;;;;;;2.22;93.35;96229.94;5059525;27;20695;-49
2021/01/07 09:31:10;;;;;;;12.73;6.90;;;;;;;2.20;93.29;96231.75;5056674;28;20617;-48
2021/01/07 09:33:37;;;;;;;13.40;6.05;;;;;;;2.18;93.14;96228.41;5057238;27;20684;-49
2021/01/07 09:36:05;;;;;;;11.73;6.47;;;;;;;2.22;93.51;96232.53;5056675;28;20200;-49
2021/01/07 09:38:33;;;;;;;15.05;7.10;;;;;;;2.32;93.11;96235.59;5052607;27;20195;-49
2021/01/07 09:41:00;;;;;;;12.23;7.32;;;;;;;2.42;93.50;96237.78;5057310;28;20592;-48
2021/01/07 09:43:27;;;;;;;17.15;7.47;;;;;;;2.41;92.80;96230.13;5057671;28;20218;-48
2021/01/07 09:45:54;;;;;;;12.73;7.57;;;;;;;2.47;92.85;96238.47;5037016;28;20280;-49
2021/01/07 09:48:22;;;;;;;13.18;7.28;;;;;;;2.41;93.08;96246.38;5036365;28;20622;-48
2021/01/07 09:50:48;;;;;;;11.93;6.57;;;;;;;2.27;93.04;96237.53;5033798;28;20302;-49
2021/01/07 09:53:26;;;;;;;13.10;6.15;;;;;;;2.13;92.82;96235.41;5034667;28;20870;-48
2021/01/07 09:55:53;;;;;;;11.43;6.80;;;;;;;2.13;93.63;96240.56;5055554;28;20611;-49
2021/01/07 09:58:19;;;;;;;14.68;7.05;;;;;;;2.21;93.45;96237.72;5052906;28;20530;-51
2021/01/07 10:00:46;;;;;;;13.20;6.95;;;;;;;2.26;93.18;96236.66;5032525;27;20343;-51
2021/01/07 10:03:13;;;;;;;18.30;8.25;;;;;;;2.22;92.76;96236.84;5036527;28;20234;-48
2021/01/07 10:05:41;;;;;;;15.00;6.80;;;;;;;2.32;93.33;96231.31;5035197;28;20220;-50
2021/01/07 10:08:08;;;;;;;13.02;7.25;;;;;;;2.46;92.89;96239.38;5037626;28;20262;-50
2021/01/07 10:10:35;;;;;;;16.48;8.55;;;;;;;2.65;92.69;96235.22;5033430;28;20245;-50
2021/01/07 10:13:02;;;;;;;13.32;7.53;;;;;;;2.60;92.62;96236.28;5023357;28;20466;-50
2021/01/07 10:15:29;;;;;;;14.95;8.00;;;;;;;2.69;91.50;96236.78;5021543;28;20330;-48
2021/01/07 10:17:56;;;;;;;8.88;5.47;;;;;;;2.80;90.33;96224.34;5022751;28;20210;-50
2021/01/07 10:20:24;;;;;;;14.68;6.57;;;;;;;2.58;89.61;96212.41;5021275;28;20752;-48
2021/01/07 10:22:52;;;;;;;12.10;6.97;;;;;;;2.68;90.65;96229.97;5023013;28;20709;-48
2021/01/07 10:25:19;;;;;;;14.80;7.10;;;;;;;2.52;89.57;96226.31;5018207;28;20255;-48
2021/01/07 10:27:46;;;;;;;13.70;6.95;;;;;;;2.49;89.52;96223.00;5022792;28;20717;-49
2021/01/07 10:30:13;;;;;;;13.98;8.65;;;;;;;2.51;90.38;96222.03;5020995;28;20827;-50
2021/01/07 10:32:40;;;;;;;18.30;9.65;;;;;;;2.44;90.73;96220.59;5023709;28;20280;-50
2021/01/07 10:35:09;;;;;;;19.60;9.60;;;;;;;2.28;89.86;96219.47;5022145;28;20238;-48
2021/01/07 10:37:37;;;;;;;11.80;6.38;;;;;;;2.14;91.33;96219.13;5022758;28;20204;-48
2021/01/07 10:40:09;;;;;;;11.32;5.93;;;;;;;2.14;91.59;96216.56;5020995;28;20232;-50
2021/01/07 10:42:36;;;;;;;13.90;6.50;;;;;;;2.36;92.18;96216.66;5019122;28;20200;-48
2021/01/07 10:45:04;;;;;;;13.52;6.80;;;;;;;2.44;91.70;96217.19;5023388;28;20282;-48
2021/01/07 10:47:39;;;;;;;11.55;6.55;;;;;;;2.56;90.22;96217.59;5019513;28;20198;-50
2021/01/07 10:50:14;;;;;;;11.98;6.55;;;;;;;2.54;90.39;96218.53;5018665;28;20766;-48
2021/01/07 10:53:03;;;;;;;12.00;6.78;;;;;;;2.54;90.38;96211.66;5017686;28;20724;-49
2021/01/07 10:55:32;;;;;;;14.75;7.63;;;;;;;2.64;90.50;96207.84;5021343;28;20220;-47
2021/01/07 10:58:34;;;;;;;12.45;6.45;;;;;;;2.72;89.50;96203.25;5021475;28;20724;-50
2021/01/07 11:01:21;;;;;;;12.48;7.70;;;;;;;2.78;89.65;96205.59;5019188;28;20728;-50
2021/01/07 11:04:14;;;;;;;11.07;5.80;;;;;;;2.77;89.10;96185.94;5018637;28;20284;-51
2021/01/07 11:06:53;;;;;;;16.23;7.65;;;;;;;2.83;88.45;96190.00;5037583;28;20585;-50
2021/01/07 11:09:24;;;;;;;12.23;7.03;;;;;;;2.78;87.65;96185.03;5037044;28;20697;-49
2021/01/07 11:11:58;;;;;;;11.90;5.70;;;;;;;2.89;87.49;96182.91;5040068;28;20242;-50
2021/01/07 11:14:30;;;;;;;13.68;7.40;;;;;;;2.92;87.75;96177.66;5036714;28;20224;-50
2021/01/07 11:17:01;;;;;;;10.60;6.20;;;;;;;3.02;87.41;96178.13;5039097;28;20624;-50
2021/01/07 11:19:31;;;;;;;15.38;7.07;;;;;;;2.99;87.01;96170.53;5037266;28;20695;-50
2021/01/07 11:22:02;;;;;;;12.15;6.20;;;;;;;2.96;86.54;96173.22;5037680;28;20203;-51
2021/01/07 11:24:29;;;;;;;8.93;5.60;;;;;;;2.92;85.58;96169.94;5038816;28;20246;-52
2021/01/07 11:26:58;;;;;;;12.35;6.35;;;;;;;2.92;87.13;96159.66;5037301;28;20680;-50
2021/01/07 11:29:26;;;;;;;10.15;6.22;;;;;;;3.01;86.30;96155.91;5038410;28;20286;-52
2021/01/07 11:31:53;;;;;;;18.00;7.85;;;;;;;3.10;86.10;96153.78;5038747;28;20636;-50
2021/01/07 11:34:21;;;;;;;17.08;8.30;;;;;;;3.12;86.54;96154.56;5039606;28;20257;-51
2021/01/07 11:36:53;;;;;;;15.95;7.07;;;;;;;3.25;86.45;96142.91;5038241;28;20212;-51
2021/01/07 11:39:25;;;;;;;10.32;6.25;;;;;;;3.33;86.36;96140.84;5035894;28;20315;-52
2021/01/07 11:42:07;;;;;;;9.75;5.72;;;;;;;3.23;85.39;96133.56;5037293;28;20274;-51
2021/01/07 11:44:47;;;;;;;9.18;5.53;;;;;;;3.20;84.67;96137.09;5034235;28;20557;-50
2021/01/07 11:47:17;;;;;;;7.88;5.15;;;;;;;3.20;85.86;96131.09;5038369;28;20286;-51
2021/01/07 11:49:48;;;;;;;12.20;6.20;;;;;;;3.40;85.85;96125.97;5038799;28;20247;-51
2021/01/07 11:52:16;;;;;;;11.23;5.53;;;;;;;3.49;85.47;96128.16;5037861;28;20200;-49
2021/01/07 11:54:46;;;;;;;8.73;4.60;;;;;;;3.57;85.24;96131.25;5037116;28;20253;-52
2021/01/07 11:57:15;;;;;;;10.55;6.40;;;;;;;3.64;85.32;96128.38;5038471;28;20287;-51
2021/01/07 11:59:42;;;;;;;11.50;6.53;;;;;;;3.59;85.23;96130.28;5036565;28;20429;-50
2021/01/07 12:02:10;;;;;;;11.93;6.15;;;;;;;3.47;84.53;96125.69;5037604;28;20203;-50
2021/01/07 12:04:38;;;;;;;11.18;6.45;;;;;;;3.23;85.68;96126.69;5037769;28;20285;-50